AirNav   TITAN Aviation Fuels
 
 1008 users online  

7MI Flugplatz Airport
Lexington, Michigan, USA

GOING TO LEXINGTON?


FAA INFORMATION EFFECTIVE 11 AUGUST 2022

Location

FAA Identifier: 7MI
Lat/Long: 43-20-30.2750N 082-32-53.8250W
43-20.504583N 082-32.897083W
43.3417431,-82.5482847
(estimated)
Elevation: 700 ft. / 213 m (estimated)
Variation: 07W (1995)
From city: 5 miles N of LEXINGTON, MI
Time zone: UTC -4 (UTC -5 during Standard Time)
Zip code: 48401

Airport Operations

Airport use: Open to the public
Activation date: 07/2000
Control tower: no
ARTCC: CLEVELAND CENTER
FSS: LANSING FLIGHT SERVICE STATION
NOTAMs facility: LAN (NOTAM-D service available)
Attendance: 
Wind indicator: yes
Segmented circle: no

Airport Communications

CTAF: 122.9

Airport Services

Runway Information

Runway 9/27

Dimensions: 3873 x 80 ft. / 1180 x 24 m
Surface: turf, in good condition
Runway edge markings: RWY MARKED WITH 3 FT YELLOW CONES.
RUNWAY 9  RUNWAY 27
Latitude: 43-20.467500N43-20.541667N
Longitude: 082-33.330833W082-32.463333W
Elevation: 669.0 ft.645.0 ft.
Traffic pattern: leftleft
Runway heading: 090 magnetic, 083 true270 magnetic, 263 true
Displaced threshold: 600 ft.1276 ft.
Obstructions: 18 ft. road, 48 ft. from runway, 2:1 slope to clear
APCH RATIO 34:1 AT DSPLCD THLD.
65 ft. trees, 132 ft. from runway, 2:1 slope to clear
APCH RATIO 20:1 AT DSPLCD THLD.

Airport Ownership and Management from official FAA records

Ownership: Privately-owned
Owner: WILLIAM SCHUTZLER
7126 TOWNSEND
APPLEGATE, MI 48401
Phone 810-359-7497
Manager: WILLIAM SCHUTZLER
7126 TOWNSEND
APPLEGATE, MI 48401
Phone 810-359-7497
OTHER CONTACT: GEORGE CRACKEL 6932 TOWNSEND, APPLEGATE MI 48401; 810-359-7176

Airport Operational Statistics

Aircraft based on the field: 3
Single engine airplanes: 2
Multi engine airplanes: 1
    
Aircraft operations: 200/year *
50% transient general aviation
50% local general aviation
* for 12-month period ending 31 December 2019

Additional Remarks

BIRDS & DEER ON AND INVOF ARPT.
FOR RY CONDITIONS CALL 810-359-7697.
FOR CD CTC CLEVELAND ARTCC AT 440-774-0224, IF UNA CTC 440-774-0490.

Instrument Procedures

There are no published instrument procedures at 7MI.

Some nearby airports with instrument procedures:

77G - Marlette Township Airport (24 nm W)
KPHN - St Clair County International Airport (26 nm S)
KBAX - Huron County Memorial Airport (32 nm NW)
D95 - Dupont/Lapeer Airport (36 nm SW)
D98 - Romeo State Airport (38 nm SW)
 
Loc | Ops | Rwys | IFR | FBO | Links
Com | Nav | Svcs | Stats | Notes
Area around 7MI (Flugplatz Airport)
 
Road maps at: MapQuest Bing Google
 
Aerial photo
WARNING: Photo may not be current or correct
Aerial photo of 7MI (Flugplatz Airport)
Photo by Bill Schutzler
Photo taken 09-Jul-2008

Do you have a better or more recent aerial photo of Flugplatz Airport that you would like to share? If so, please send us your photo.

 
Sectional chart

 
Airport distance calculator
Flying to Flugplatz Airport? Find the distance to fly.

From to 7MI

Sunrise and sunset
Times for 13-Aug-2022
 Local
(UTC-4)
 Zulu
(UTC)
Morning civil twilight06:0310:03
Sunrise06:3410:34
Sunset20:3600:36
Evening civil twilight21:0701:07

Current date and time
Zulu (UTC)  14-Aug-2022 00:52:09
Local (UTC-4)  13-Aug-2022 20:52:09
 
METAR
CYZR 
23nm SE 
140000Z AUTO 36003KT 9SM OVC100 20/16 A3009 RMK SLP191 DENSITY ALT 1200FT
KPHN 
26nm S 
140035Z AUTO 00000KT 10SM OVC100 19/14 A3009 RMK AO2
KBAX 
33nm NW 
140035Z AUTO 01005KT 10SM OVC070 18/13 A3010 RMK AO2 T01780126
KD95 
36nm SW 
140035Z AUTO 31003KT 10SM OVC085 18/11 A3011 RMK AO2 T01760111
KCFS 
40nm W 
140035Z AUTO 00000KT 10SM OVC075 18/13 A3010 RMK AO2 T01750130
KP58 
42nm N 
132355Z AUTO 28003KT 19/14 A3009 RMK AO1 SLP184 T01940144 10233 20194 58007
CWGD 
44nm NE 
140000Z AUTO 29002KT 20/15 RMK AO1 SLP191 T01990147 56005
KMTC 
45nm S 
132356Z 00000KT 10SM SCT070 OVC090 19/17 A3005 RMK AO2A SLP180 P0000 60000 T01930169 10230 20192 57010
TAF
CYZR 
23nm SE 
131940Z 1320/1402 22008KT P6SM SCT080 OVC110 TEMPO 1320/1402 P6SM -SHRA BKN060 OVC080 RMK FCST BASED ON AUTO OBS. NXT FCST BY 140800Z
NOTAMs
Click for the latest NOTAMs
NOTAMs are issued by the DoD/FAA and will open in a separate window not controlled by AirNav.

 

 
 

Would you like to see your business listed on this page?

 If your business provides an interesting product or service to pilots, flight crews, aircraft, or users of the Flugplatz Airport, you should consider listing it here.  To start the listing process, click on the button below
 
Add a business
 

Other Pages about Flugplatz Airport

Page from the Michigan Airport Directory (PDF)
 
Update a link
 
Copyright © AirNav, LLC. All rights reserved. Privacy Policy  Contact